sensor_id;sensor_type;location;lat;lon;timestamp;temperature;humidity
22456;DHT22;11395;53.204;6.502;2022-11-15T00:09:30;22.80;64.10
22456;DHT22;11395;53.204;6.502;2022-11-15T00:12:15;22.70;65.10
22456;DHT22;11395;53.204;6.502;2022-11-15T00:15:00;22.70;65.30
22456;DHT22;11395;53.204;6.502;2022-11-15T00:17:48;22.60;65.00
22456;DHT22;11395;53.204;6.502;2022-11-15T00:20:34;22.60;65.10
22456;DHT22;11395;53.204;6.502;2022-11-15T00:23:18;22.60;64.70
22456;DHT22;11395;53.204;6.502;2022-11-15T00:26:03;22.70;64.80
22456;DHT22;11395;53.204;6.502;2022-11-15T00:28:48;22.60;64.70
22456;DHT22;11395;53.204;6.502;2022-11-15T00:31:33;22.60;64.70
22456;DHT22;11395;53.204;6.502;2022-11-15T00:34:18;22.60;65.50
22456;DHT22;11395;53.204;6.502;2022-11-15T00:37:03;22.60;64.80
22456;DHT22;11395;53.204;6.502;2022-11-15T00:39:47;22.60;64.80
22456;DHT22;11395;53.204;6.502;2022-11-15T00:42:32;22.60;64.70
22456;DHT22;11395;53.204;6.502;2022-11-15T00:45:17;22.60;64.70
22456;DHT22;11395;53.204;6.502;2022-11-15T00:48:01;22.50;64.80
22456;DHT22;11395;53.204;6.502;2022-11-15T00:50:47;22.50;64.80
22456;DHT22;11395;53.204;6.502;2022-11-15T00:53:32;22.50;64.70
22456;DHT22;11395;53.204;6.502;2022-11-15T00:56:17;22.50;64.80
22456;DHT22;11395;53.204;6.502;2022-11-15T00:59:01;22.50;64.80
22456;DHT22;11395;53.204;6.502;2022-11-15T01:09:35;22.20;64.50
22456;DHT22;11395;53.204;6.502;2022-11-15T01:12:19;22.10;65.50
22456;DHT22;11395;53.204;6.502;2022-11-15T01:15:05;22.10;65.60
22456;DHT22;11395;53.204;6.502;2022-11-15T01:17:49;22.10;65.60
22456;DHT22;11395;53.204;6.502;2022-11-15T01:20:34;22.10;65.50
22456;DHT22;11395;53.204;6.502;2022-11-15T01:23:19;22.10;65.40
22456;DHT22;11395;53.204;6.502;2022-11-15T01:26:06;22.10;65.40
22456;DHT22;11395;53.204;6.502;2022-11-15T01:28:51;22.10;65.30
22456;DHT22;11395;53.204;6.502;2022-11-15T01:31:36;22.10;65.90
22456;DHT22;11395;53.204;6.502;2022-11-15T01:34:21;22.10;65.00
22456;DHT22;11395;53.204;6.502;2022-11-15T01:37:06;22.10;65.10
22456;DHT22;11395;53.204;6.502;2022-11-15T01:39:50;22.10;65.00
22456;DHT22;11395;53.204;6.502;2022-11-15T01:42:35;22.10;64.90
22456;DHT22;11395;53.204;6.502;2022-11-15T01:45:20;22.00;65.00
22456;DHT22;11395;53.204;6.502;2022-11-15T01:48:07;22.00;65.10
22456;DHT22;11395;53.204;6.502;2022-11-15T01:50:52;22.00;65.10
22456;DHT22;11395;53.204;6.502;2022-11-15T01:53:39;22.00;65.00
22456;DHT22;11395;53.204;6.502;2022-11-15T01:56:30;22.00;65.10
22456;DHT22;11395;53.204;6.502;2022-11-15T01:59:15;22.00;65.10
22456;DHT22;11395;53.204;6.502;2022-11-15T02:09:33;21.80;64.80
22456;DHT22;11395;53.204;6.502;2022-11-15T02:12:19;21.70;65.80
22456;DHT22;11395;53.204;6.502;2022-11-15T02:15:07;21.70;66.00
22456;DHT22;11395;53.204;6.502;2022-11-15T02:18:15;21.60;65.90
22456;DHT22;11395;53.204;6.502;2022-11-15T02:24:20;21.70;65.80
22456;DHT22;11395;53.204;6.502;2022-11-15T02:27:42;21.70;65.70
22456;DHT22;11395;53.204;6.502;2022-11-15T02:30:41;21.70;65.60
22456;DHT22;11395;53.204;6.502;2022-11-15T02:33:45;21.70;65.50
22456;DHT22;11395;53.204;6.502;2022-11-15T02:42:55;21.60;65.50
22456;DHT22;11395;53.204;6.502;2022-11-15T02:46:09;21.60;65.50
22456;DHT22;11395;53.204;6.502;2022-11-15T02:48:57;21.60;65.50
22456;DHT22;11395;53.204;6.502;2022-11-15T02:51:43;21.60;65.50
22456;DHT22;11395;53.204;6.502;2022-11-15T02:54:31;21.60;65.60
22456;DHT22;11395;53.204;6.502;2022-11-15T02:57:18;21.60;65.60
22456;DHT22;11395;53.204;6.502;2022-11-15T03:09:42;21.30;65.30
22456;DHT22;11395;53.204;6.502;2022-11-15T03:12:43;21.30;66.30
22456;DHT22;11395;53.204;6.502;2022-11-15T03:15:36;21.20;66.50
22456;DHT22;11395;53.204;6.502;2022-11-15T03:18:40;21.20;66.50
22456;DHT22;11395;53.204;6.502;2022-11-15T03:21:28;21.20;66.40
22456;DHT22;11395;53.204;6.502;2022-11-15T03:24:17;21.20;66.30
22456;DHT22;11395;53.204;6.502;2022-11-15T03:27:06;21.30;66.30
22456;DHT22;11395;53.204;6.502;2022-11-15T03:29:54;21.30;66.20
22456;DHT22;11395;53.204;6.502;2022-11-15T03:32:47;21.30;66.20
22456;DHT22;11395;53.204;6.502;2022-11-15T03:35:36;21.30;66.10
22456;DHT22;11395;53.204;6.502;2022-11-15T03:38:26;21.30;66.10
22456;DHT22;11395;53.204;6.502;2022-11-15T03:41:47;21.30;66.00
22456;DHT22;11395;53.204;6.502;2022-11-15T03:44:46;21.30;66.00
22456;DHT22;11395;53.204;6.502;2022-11-15T03:47:43;21.30;66.00
22456;DHT22;11395;53.204;6.502;2022-11-15T03:50:30;21.20;65.90
22456;DHT22;11395;53.204;6.502;2022-11-15T03:53:15;21.20;65.90
22456;DHT22;11395;53.204;6.502;2022-11-15T03:56:00;21.20;66.00
22456;DHT22;11395;53.204;6.502;2022-11-15T03:58:44;21.20;66.00
22456;DHT22;11395;53.204;6.502;2022-11-15T04:09:33;21.00;65.70
22456;DHT22;11395;53.204;6.502;2022-11-15T04:12:18;20.90;66.70
22456;DHT22;11395;53.204;6.502;2022-11-15T04:15:17;20.90;66.90
22456;DHT22;11395;53.204;6.502;2022-11-15T04:18:03;20.90;66.90
22456;DHT22;11395;53.204;6.502;2022-11-15T04:20:48;20.90;66.80
22456;DHT22;11395;53.204;6.502;2022-11-15T04:23:51;20.90;66.80
22456;DHT22;11395;53.204;6.502;2022-11-15T04:26:55;20.90;66.60
22456;DHT22;11395;53.204;6.502;2022-11-15T04:29:39;21.00;66.60
22456;DHT22;11395;53.204;6.502;2022-11-15T04:32:23;21.00;66.50
22456;DHT22;11395;53.204;6.502;2022-11-15T04:35:08;21.00;66.50
22456;DHT22;11395;53.204;6.502;2022-11-15T04:37:54;21.00;66.40
22456;DHT22;11395;53.204;6.502;2022-11-15T04:40:38;21.10;66.40
22456;DHT22;11395;53.204;6.502;2022-11-15T04:43:23;21.10;66.30
22456;DHT22;11395;53.204;6.502;2022-11-15T04:46:08;21.20;66.30
22456;DHT22;11395;53.204;6.502;2022-11-15T04:48:53;21.20;66.30
22456;DHT22;11395;53.204;6.502;2022-11-15T04:51:38;21.20;66.20
22456;DHT22;11395;53.204;6.502;2022-11-15T04:54:22;21.30;66.20
22456;DHT22;11395;53.204;6.502;2022-11-15T04:57:07;21.40;66.10
22456;DHT22;11395;53.204;6.502;2022-11-15T04:59:52;21.50;66.00
22456;DHT22;11395;53.204;6.502;2022-11-15T05:02:37;21.60;66.00
22456;DHT22;11395;53.204;6.502;2022-11-15T05:05:40;21.70;65.80
22456;DHT22;11395;53.204;6.502;2022-11-15T05:08:25;21.80;65.80
22456;DHT22;11395;53.204;6.502;2022-11-15T05:11:10;21.90;65.60
22456;DHT22;11395;53.204;6.502;2022-11-15T05:13:55;22.00;65.50
22456;DHT22;11395;53.204;6.502;2022-11-15T05:16:40;22.10;65.30
22456;DHT22;11395;53.204;6.502;2022-11-15T05:19:25;22.20;65.30
22456;DHT22;11395;53.204;6.502;2022-11-15T05:22:09;22.20;65.00
22456;DHT22;11395;53.204;6.502;2022-11-15T05:24:54;22.30;65.00
22456;DHT22;11395;53.204;6.502;2022-11-15T05:27:38;22.40;65.00
22456;DHT22;11395;53.204;6.502;2022-11-15T05:30:23;22.40;64.80
22456;DHT22;11395;53.204;6.502;2022-11-15T05:33:07;22.50;64.60
22456;DHT22;11395;53.204;6.502;2022-11-15T05:36:04;22.50;64.40
22456;DHT22;11395;53.204;6.502;2022-11-15T05:38:50;22.60;64.30
22456;DHT22;11395;53.204;6.502;2022-11-15T05:41:39;22.70;64.10
22456;DHT22;11395;53.204;6.502;2022-11-15T05:44:25;22.70;64.10
22456;DHT22;11395;53.204;6.502;2022-11-15T05:47:14;22.80;64.00
22456;DHT22;11395;53.204;6.502;2022-11-15T05:49:59;22.90;64.00
22456;DHT22;11395;53.204;6.502;2022-11-15T05:52:44;23.00;64.70
22456;DHT22;11395;53.204;6.502;2022-11-15T05:55:30;23.10;63.80
22456;DHT22;11395;53.204;6.502;2022-11-15T05:58:16;23.20;63.70
22456;DHT22;11395;53.204;6.502;2022-11-15T06:01:01;23.30;63.70
22456;DHT22;11395;53.204;6.502;2022-11-15T06:03:46;23.50;63.60
22456;DHT22;11395;53.204;6.502;2022-11-15T06:06:31;23.60;63.60
22456;DHT22;11395;53.204;6.502;2022-11-15T06:09:15;23.70;63.60
22456;DHT22;11395;53.204;6.502;2022-11-15T06:12:00;23.80;63.40
22456;DHT22;11395;53.204;6.502;2022-11-15T06:14:44;23.90;63.30
22456;DHT22;11395;53.204;6.502;2022-11-15T06:17:29;24.00;63.20
22456;DHT22;11395;53.204;6.502;2022-11-15T06:20:14;24.10;63.10
22456;DHT22;11395;53.204;6.502;2022-11-15T06:23:03;24.10;62.90
22456;DHT22;11395;53.204;6.502;2022-11-15T06:25:48;24.20;62.60
22456;DHT22;11395;53.204;6.502;2022-11-15T06:28:33;24.20;62.50
22456;DHT22;11395;53.204;6.502;2022-11-15T06:31:18;24.30;62.40
22456;DHT22;11395;53.204;6.502;2022-11-15T06:34:02;24.30;62.30
22456;DHT22;11395;53.204;6.502;2022-11-15T06:36:47;24.40;62.10
22456;DHT22;11395;53.204;6.502;2022-11-15T06:39:31;24.40;61.90
22456;DHT22;11395;53.204;6.502;2022-11-15T06:42:16;24.40;61.80
22456;DHT22;11395;53.204;6.502;2022-11-15T06:45:00;24.40;61.80
22456;DHT22;11395;53.204;6.502;2022-11-15T06:47:46;24.40;61.60
22456;DHT22;11395;53.204;6.502;2022-11-15T06:50:31;24.40;61.60
22456;DHT22;11395;53.204;6.502;2022-11-15T06:53:15;24.40;61.40
22456;DHT22;11395;53.204;6.502;2022-11-15T06:56:01;24.40;61.40
22456;DHT22;11395;53.204;6.502;2022-11-15T06:58:46;24.40;61.30
22456;DHT22;11395;53.204;6.502;2022-11-15T07:01:31;24.40;61.40
22456;DHT22;11395;53.204;6.502;2022-11-15T07:04:15;24.30;61.10
22456;DHT22;11395;53.204;6.502;2022-11-15T07:07:00;24.30;60.50
22456;DHT22;11395;53.204;6.502;2022-11-15T07:09:44;24.30;61.00
22456;DHT22;11395;53.204;6.502;2022-11-15T07:12:29;24.30;61.20
22456;DHT22;11395;53.204;6.502;2022-11-15T07:15:14;24.30;61.40
22456;DHT22;11395;53.204;6.502;2022-11-15T07:18:02;24.30;61.50
22456;DHT22;11395;53.204;6.502;2022-11-15T07:20:47;24.40;61.70
22456;DHT22;11395;53.204;6.502;2022-11-15T07:23:32;24.40;62.20
22456;DHT22;11395;53.204;6.502;2022-11-15T07:26:17;24.50;61.70
22456;DHT22;11395;53.204;6.502;2022-11-15T07:29:01;24.60;61.80
22456;DHT22;11395;53.204;6.502;2022-11-15T07:31:46;24.70;61.70
22456;DHT22;11395;53.204;6.502;2022-11-15T07:34:31;24.70;61.60
22456;DHT22;11395;53.204;6.502;2022-11-15T07:37:16;24.80;61.40
22456;DHT22;11395;53.204;6.502;2022-11-15T07:40:01;24.90;61.30
22456;DHT22;11395;53.204;6.502;2022-11-15T07:42:46;24.90;61.00
22456;DHT22;11395;53.204;6.502;2022-11-15T07:45:44;25.00;60.80
22456;DHT22;11395;53.204;6.502;2022-11-15T07:48:30;25.00;60.70
22456;DHT22;11395;53.204;6.502;2022-11-15T07:51:16;25.10;60.60
22456;DHT22;11395;53.204;6.502;2022-11-15T07:54:01;25.10;60.40
22456;DHT22;11395;53.204;6.502;2022-11-15T07:56:45;25.10;60.30
22456;DHT22;11395;53.204;6.502;2022-11-15T07:59:29;25.10;60.10
22456;DHT22;11395;53.204;6.502;2022-11-15T08:02:14;25.10;60.10
22456;DHT22;11395;53.204;6.502;2022-11-15T08:05:03;25.10;60.00
22456;DHT22;11395;53.204;6.502;2022-11-15T08:07:48;25.10;59.90
22456;DHT22;11395;53.204;6.502;2022-11-15T08:10:33;25.10;59.90
22456;DHT22;11395;53.204;6.502;2022-11-15T08:13:18;25.10;59.90
22456;DHT22;11395;53.204;6.502;2022-11-15T08:16:04;25.10;59.90
22456;DHT22;11395;53.204;6.502;2022-11-15T08:18:49;25.10;60.70
22456;DHT22;11395;53.204;6.502;2022-11-15T08:21:34;25.10;60.00
22456;DHT22;11395;53.204;6.502;2022-11-15T08:24:19;25.00;60.00
22456;DHT22;11395;53.204;6.502;2022-11-15T08:27:05;25.10;60.10
22456;DHT22;11395;53.204;6.502;2022-11-15T08:29:59;25.00;60.10
22456;DHT22;11395;53.204;6.502;2022-11-15T08:32:43;25.00;60.00
22456;DHT22;11395;53.204;6.502;2022-11-15T08:35:28;25.00;60.10
22456;DHT22;11395;53.204;6.502;2022-11-15T08:38:13;25.00;60.20
22456;DHT22;11395;53.204;6.502;2022-11-15T08:41:04;24.90;60.20
22456;DHT22;11395;53.204;6.502;2022-11-15T08:43:49;25.00;60.40
22456;DHT22;11395;53.204;6.502;2022-11-15T08:46:33;25.00;60.70
22456;DHT22;11395;53.204;6.502;2022-11-15T08:49:18;25.00;60.90
22456;DHT22;11395;53.204;6.502;2022-11-15T08:52:02;25.10;61.40
22456;DHT22;11395;53.204;6.502;2022-11-15T08:54:47;25.10;61.20
22456;DHT22;11395;53.204;6.502;2022-11-15T08:57:33;25.10;61.20
22456;DHT22;11395;53.204;6.502;2022-11-15T09:00:18;25.10;61.20
22456;DHT22;11395;53.204;6.502;2022-11-15T09:03:06;25.10;61.20
22456;DHT22;11395;53.204;6.502;2022-11-15T09:05:55;25.10;61.30
22456;DHT22;11395;53.204;6.502;2022-11-15T09:08:40;25.10;61.20
22456;DHT22;11395;53.204;6.502;2022-11-15T09:11:25;25.10;61.10
22456;DHT22;11395;53.204;6.502;2022-11-15T09:14:12;25.10;61.10
22456;DHT22;11395;53.204;6.502;2022-11-15T09:16:57;25.10;61.10
22456;DHT22;11395;53.204;6.502;2022-11-15T09:19:42;25.10;61.10
22456;DHT22;11395;53.204;6.502;2022-11-15T09:22:27;25.10;61.00
22456;DHT22;11395;53.204;6.502;2022-11-15T09:25:12;25.00;61.00
22456;DHT22;11395;53.204;6.502;2022-11-15T09:27:56;25.00;61.00
22456;DHT22;11395;53.204;6.502;2022-11-15T09:30:41;25.00;61.10
22456;DHT22;11395;53.204;6.502;2022-11-15T09:33:26;25.00;61.20
22456;DHT22;11395;53.204;6.502;2022-11-15T09:36:11;24.90;61.10
22456;DHT22;11395;53.204;6.502;2022-11-15T09:38:58;24.90;61.20
22456;DHT22;11395;53.204;6.502;2022-11-15T09:47:49;24.80;61.30
22456;DHT22;11395;53.204;6.502;2022-11-15T09:53:05;24.70;61.40
22456;DHT22;11395;53.204;6.502;2022-11-15T09:56:02;24.60;61.50
22456;DHT22;11395;53.204;6.502;2022-11-15T09:58:36;24.60;61.60
22456;DHT22;11395;53.204;6.502;2022-11-15T10:01:53;24.60;61.60
22456;DHT22;11395;53.204;6.502;2022-11-15T10:03:58;24.50;61.80
22456;DHT22;11395;53.204;6.502;2022-11-15T10:06:26;24.40;62.50
22456;DHT22;11395;53.204;6.502;2022-11-15T10:09:11;24.40;61.80
22456;DHT22;11395;53.204;6.502;2022-11-15T10:11:39;24.40;61.90
22456;DHT22;11395;53.204;6.502;2022-11-15T10:14:30;24.30;62.00
22456;DHT22;11395;53.204;6.502;2022-11-15T10:22:35;24.40;62.30
22456;DHT22;11395;53.204;6.502;2022-11-15T10:27:51;24.40;62.30
22456;DHT22;11395;53.204;6.502;2022-11-15T10:30:18;24.50;62.30
22456;DHT22;11395;53.204;6.502;2022-11-15T10:32:46;24.50;62.50
22456;DHT22;11395;53.204;6.502;2022-11-15T10:35:25;24.50;62.40
22456;DHT22;11395;53.204;6.502;2022-11-15T10:38:06;24.50;62.30
22456;DHT22;11395;53.204;6.502;2022-11-15T10:40:33;24.60;62.30
22456;DHT22;11395;53.204;6.502;2022-11-15T10:43:14;24.60;62.30
22456;DHT22;11395;53.204;6.502;2022-11-15T10:45:41;24.60;62.30
22456;DHT22;11395;53.204;6.502;2022-11-15T10:50:45;24.60;62.30
22456;DHT22;11395;53.204;6.502;2022-11-15T10:55:50;24.60;62.30
22456;DHT22;11395;53.204;6.502;2022-11-15T10:58:21;24.60;63.10
22456;DHT22;11395;53.204;6.502;2022-11-15T11:00:48;24.60;62.40
22456;DHT22;11395;53.204;6.502;2022-11-15T11:03:36;24.60;62.30
22456;DHT22;11395;53.204;6.502;2022-11-15T11:06:17;24.60;62.50
22456;DHT22;11395;53.204;6.502;2022-11-15T11:11:20;24.60;62.40
22456;DHT22;11395;53.204;6.502;2022-11-15T11:13:46;24.50;62.50
22456;DHT22;11395;53.204;6.502;2022-11-15T11:16:38;24.50;62.40
22456;DHT22;11395;53.204;6.502;2022-11-15T11:19:43;24.50;62.40
22456;DHT22;11395;53.204;6.502;2022-11-15T11:22:32;24.50;62.40
22456;DHT22;11395;53.204;6.502;2022-11-15T11:28:05;24.40;62.40
22456;DHT22;11395;53.204;6.502;2022-11-15T11:31:00;24.40;62.40
22456;DHT22;11395;53.204;6.502;2022-11-15T11:33:41;24.40;62.50
22456;DHT22;11395;53.204;6.502;2022-11-15T11:39:17;24.40;62.50
22456;DHT22;11395;53.204;6.502;2022-11-15T11:47:00;24.30;62.60
22456;DHT22;11395;53.204;6.502;2022-11-15T12:00:27;24.30;62.90
22456;DHT22;11395;53.204;6.502;2022-11-15T12:03:14;24.30;62.90
22456;DHT22;11395;53.204;6.502;2022-11-15T12:06:06;24.30;62.80
22456;DHT22;11395;53.204;6.502;2022-11-15T12:08:50;24.20;62.70
22456;DHT22;11395;53.204;6.502;2022-11-15T12:14:36;24.20;62.80
22456;DHT22;11395;53.204;6.502;2022-11-15T12:17:05;24.20;62.80
22456;DHT22;11395;53.204;6.502;2022-11-15T12:19:31;24.20;62.90
22456;DHT22;11395;53.204;6.502;2022-11-15T12:22:06;24.10;62.90
22456;DHT22;11395;53.204;6.502;2022-11-15T12:24:43;24.20;62.90
22456;DHT22;11395;53.204;6.502;2022-11-15T12:30:04;24.10;63.20
22456;DHT22;11395;53.204;6.502;2022-11-15T12:32:37;24.20;63.40
22456;DHT22;11395;53.204;6.502;2022-11-15T12:35:20;24.20;63.60
22456;DHT22;11395;53.204;6.502;2022-11-15T12:37:49;24.20;63.50
22456;DHT22;11395;53.204;6.502;2022-11-15T12:45:42;24.40;63.40
22456;DHT22;11395;53.204;6.502;2022-11-15T12:50:56;24.50;63.40
22456;DHT22;11395;53.204;6.502;2022-11-15T12:58:56;24.80;62.30
22456;DHT22;11395;53.204;6.502;2022-11-15T13:12:03;25.50;61.00
22456;DHT22;11395;53.204;6.502;2022-11-15T13:14:41;25.40;60.80
22456;DHT22;11395;53.204;6.502;2022-11-15T13:20:30;25.30;61.00
22456;DHT22;11395;53.204;6.502;2022-11-15T13:23:13;25.20;61.00
22456;DHT22;11395;53.204;6.502;2022-11-15T13:28:43;25.00;61.40
22456;DHT22;11395;53.204;6.502;2022-11-15T13:33:50;24.90;61.80
22456;DHT22;11395;53.204;6.502;2022-11-15T13:36:22;24.80;61.90
22456;DHT22;11395;53.204;6.502;2022-11-15T13:39:01;24.70;62.00
22456;DHT22;11395;53.204;6.502;2022-11-15T13:41:33;24.70;62.00
22456;DHT22;11395;53.204;6.502;2022-11-15T13:44:00;24.60;62.00
22456;DHT22;11395;53.204;6.502;2022-11-15T13:46:28;24.70;62.30
22456;DHT22;11395;53.204;6.502;2022-11-15T13:48:59;24.60;62.40
22456;DHT22;11395;53.204;6.502;2022-11-15T13:51:47;24.60;62.40
22456;DHT22;11395;53.204;6.502;2022-11-15T13:54:20;24.60;62.50
22456;DHT22;11395;53.204;6.502;2022-11-15T13:56:53;24.60;62.50
22456;DHT22;11395;53.204;6.502;2022-11-15T13:59:30;24.50;62.50
22456;DHT22;11395;53.204;6.502;2022-11-15T14:02:01;24.50;62.50
22456;DHT22;11395;53.204;6.502;2022-11-15T14:04:28;24.50;62.60
22456;DHT22;11395;53.204;6.502;2022-11-15T14:06:58;24.40;62.50
22456;DHT22;11395;53.204;6.502;2022-11-15T14:11:57;24.50;62.70
22456;DHT22;11395;53.204;6.502;2022-11-15T14:14:25;24.50;62.70
22456;DHT22;11395;53.204;6.502;2022-11-15T14:16:53;24.60;63.70
22456;DHT22;11395;53.204;6.502;2022-11-15T14:24:36;24.70;63.10
22456;DHT22;11395;53.204;6.502;2022-11-15T14:27:24;24.70;63.30
22456;DHT22;11395;53.204;6.502;2022-11-15T14:29:51;24.80;64.30
22456;DHT22;11395;53.204;6.502;2022-11-15T14:32:20;24.80;63.70
22456;DHT22;11395;53.204;6.502;2022-11-15T14:34:55;24.80;63.70
22456;DHT22;11395;53.204;6.502;2022-11-15T14:37:31;24.80;63.80
22456;DHT22;11395;53.204;6.502;2022-11-15T14:40:00;24.80;63.70
22456;DHT22;11395;53.204;6.502;2022-11-15T14:42:26;24.80;63.60
22456;DHT22;11395;53.204;6.502;2022-11-15T14:44:53;24.80;63.40
22456;DHT22;11395;53.204;6.502;2022-11-15T14:47:19;24.80;63.40
22456;DHT22;11395;53.204;6.502;2022-11-15T14:49:45;24.80;63.40
22456;DHT22;11395;53.204;6.502;2022-11-15T14:54:45;24.70;63.20
22456;DHT22;11395;53.204;6.502;2022-11-15T14:57:11;24.70;63.20
22456;DHT22;11395;53.204;6.502;2022-11-15T14:59:37;24.70;63.20
22456;DHT22;11395;53.204;6.502;2022-11-15T15:02:16;24.70;63.30
22456;DHT22;11395;53.204;6.502;2022-11-15T15:04:43;24.70;63.30
22456;DHT22;11395;53.204;6.502;2022-11-15T15:07:09;24.60;63.20
22456;DHT22;11395;53.204;6.502;2022-11-15T15:09:35;24.60;63.20
22456;DHT22;11395;53.204;6.502;2022-11-15T15:12:01;24.60;63.30
22456;DHT22;11395;53.204;6.502;2022-11-15T15:14:28;24.60;63.20
22456;DHT22;11395;53.204;6.502;2022-11-15T15:16:54;24.60;63.20
22456;DHT22;11395;53.204;6.502;2022-11-15T15:19:20;24.60;63.30
22456;DHT22;11395;53.204;6.502;2022-11-15T15:21:46;24.50;63.10
22456;DHT22;11395;53.204;6.502;2022-11-15T15:24:15;24.50;63.10
22456;DHT22;11395;53.204;6.502;2022-11-15T15:26:41;24.50;63.10
22456;DHT22;11395;53.204;6.502;2022-11-15T15:29:09;24.50;64.00
22456;DHT22;11395;53.204;6.502;2022-11-15T15:31:35;24.50;63.30
22456;DHT22;11395;53.204;6.502;2022-11-15T15:34:02;24.40;63.20
22456;DHT22;11395;53.204;6.502;2022-11-15T15:36:28;24.40;63.30
22456;DHT22;11395;53.204;6.502;2022-11-15T15:38:54;24.40;63.30
22456;DHT22;11395;53.204;6.502;2022-11-15T15:41:20;24.40;63.30
22456;DHT22;11395;53.204;6.502;2022-11-15T15:43:47;24.40;63.30
22456;DHT22;11395;53.204;6.502;2022-11-15T15:46:18;24.40;63.30
22456;DHT22;11395;53.204;6.502;2022-11-15T15:48:45;24.40;63.40
22456;DHT22;11395;53.204;6.502;2022-11-15T15:51:12;24.50;63.30
22456;DHT22;11395;53.204;6.502;2022-11-15T15:53:38;24.60;63.30
22456;DHT22;11395;53.204;6.502;2022-11-15T15:56:04;24.60;63.40
22456;DHT22;11395;53.204;6.502;2022-11-15T15:58:34;24.60;63.20
22456;DHT22;11395;53.204;6.502;2022-11-15T16:01:00;24.70;63.20
22456;DHT22;11395;53.204;6.502;2022-11-15T16:03:26;24.70;63.20
22456;DHT22;11395;53.204;6.502;2022-11-15T16:05:53;24.70;63.10
22456;DHT22;11395;53.204;6.502;2022-11-15T16:08:22;24.70;63.10
22456;DHT22;11395;53.204;6.502;2022-11-15T16:10:49;24.70;63.00
22456;DHT22;11395;53.204;6.502;2022-11-15T16:13:16;24.80;63.00
22456;DHT22;11395;53.204;6.502;2022-11-15T16:15:43;24.80;62.90
22456;DHT22;11395;53.204;6.502;2022-11-15T16:18:15;24.80;62.80
22456;DHT22;11395;53.204;6.502;2022-11-15T16:20:46;24.80;62.80
22456;DHT22;11395;53.204;6.502;2022-11-15T16:23:17;24.80;62.80
22456;DHT22;11395;53.204;6.502;2022-11-15T16:25:48;24.70;62.60
22456;DHT22;11395;53.204;6.502;2022-11-15T16:28:26;24.80;62.70
22456;DHT22;11395;53.204;6.502;2022-11-15T16:33:26;24.70;62.70
22456;DHT22;11395;53.204;6.502;2022-11-15T16:35:52;24.70;62.70
22456;DHT22;11395;53.204;6.502;2022-11-15T16:38:19;24.70;62.60
22456;DHT22;11395;53.204;6.502;2022-11-15T16:40:45;24.70;62.70
22456;DHT22;11395;53.204;6.502;2022-11-15T16:43:12;24.70;62.70
22456;DHT22;11395;53.204;6.502;2022-11-15T16:45:38;24.70;62.60
22456;DHT22;11395;53.204;6.502;2022-11-15T16:48:05;24.70;62.70
22456;DHT22;11395;53.204;6.502;2022-11-15T16:50:33;24.70;62.70
22456;DHT22;11395;53.204;6.502;2022-11-15T16:53:06;24.70;62.70
22456;DHT22;11395;53.204;6.502;2022-11-15T16:55:41;24.70;62.70
22456;DHT22;11395;53.204;6.502;2022-11-15T16:58:10;24.70;62.70
22456;DHT22;11395;53.204;6.502;2022-11-15T17:01:23;24.70;63.40
22456;DHT22;11395;53.204;6.502;2022-11-15T17:04:32;24.60;62.60
22456;DHT22;11395;53.204;6.502;2022-11-15T17:10:09;24.60;62.60
22456;DHT22;11395;53.204;6.502;2022-11-15T17:12:54;24.60;62.60
22456;DHT22;11395;53.204;6.502;2022-11-15T17:15:24;24.60;62.50
22456;DHT22;11395;53.204;6.502;2022-11-15T17:17:53;24.60;62.60
22456;DHT22;11395;53.204;6.502;2022-11-15T17:20:25;24.50;62.60
22456;DHT22;11395;53.204;6.502;2022-11-15T17:22:57;24.50;62.60
22456;DHT22;11395;53.204;6.502;2022-11-15T17:25:23;24.50;62.60
22456;DHT22;11395;53.204;6.502;2022-11-15T17:27:52;24.50;62.70
22456;DHT22;11395;53.204;6.502;2022-11-15T17:30:24;24.50;62.70
22456;DHT22;11395;53.204;6.502;2022-11-15T17:32:50;24.60;62.70
22456;DHT22;11395;53.204;6.502;2022-11-15T17:35:21;24.60;62.80
22456;DHT22;11395;53.204;6.502;2022-11-15T17:37:47;24.60;62.70
22456;DHT22;11395;53.204;6.502;2022-11-15T17:40:16;24.70;62.70
22456;DHT22;11395;53.204;6.502;2022-11-15T17:42:42;24.70;62.50
22456;DHT22;11395;53.204;6.502;2022-11-15T17:45:10;24.70;62.50
22456;DHT22;11395;53.204;6.502;2022-11-15T17:47:36;24.70;62.50
22456;DHT22;11395;53.204;6.502;2022-11-15T17:50:03;24.70;62.20
22456;DHT22;11395;53.204;6.502;2022-11-15T17:52:29;24.70;62.00
22456;DHT22;11395;53.204;6.502;2022-11-15T17:54:55;24.70;62.10
22456;DHT22;11395;53.204;6.502;2022-11-15T17:57:22;24.70;62.20
22456;DHT22;11395;53.204;6.502;2022-11-15T17:59:48;24.70;62.20
22456;DHT22;11395;53.204;6.502;2022-11-15T18:02:14;24.70;62.20
22456;DHT22;11395;53.204;6.502;2022-11-15T18:04:41;24.60;62.40
22456;DHT22;11395;53.204;6.502;2022-11-15T18:07:07;24.60;62.60
22456;DHT22;11395;53.204;6.502;2022-11-15T18:09:36;24.60;62.60
22456;DHT22;11395;53.204;6.502;2022-11-15T18:12:07;24.60;62.70
22456;DHT22;11395;53.204;6.502;2022-11-15T18:14:34;24.60;62.70
22456;DHT22;11395;53.204;6.502;2022-11-15T18:17:00;24.60;62.80
22456;DHT22;11395;53.204;6.502;2022-11-15T18:19:27;24.60;62.80
22456;DHT22;11395;53.204;6.502;2022-11-15T18:21:53;24.60;62.80
22456;DHT22;11395;53.204;6.502;2022-11-15T18:24:23;24.60;62.80
22456;DHT22;11395;53.204;6.502;2022-11-15T18:26:50;24.60;63.00
22456;DHT22;11395;53.204;6.502;2022-11-15T18:29:17;24.50;63.00
22456;DHT22;11395;53.204;6.502;2022-11-15T18:31:45;24.50;63.00
22456;DHT22;11395;53.204;6.502;2022-11-15T18:34:12;24.40;63.00
22456;DHT22;11395;53.204;6.502;2022-11-15T18:36:38;24.50;63.00
22456;DHT22;11395;53.204;6.502;2022-11-15T18:39:06;24.40;62.90
22456;DHT22;11395;53.204;6.502;2022-11-15T18:41:33;24.40;63.10
22456;DHT22;11395;53.204;6.502;2022-11-15T18:44:01;24.40;63.10
22456;DHT22;11395;53.204;6.502;2022-11-15T18:46:30;24.40;63.10
22456;DHT22;11395;53.204;6.502;2022-11-15T18:48:59;24.40;63.10
22456;DHT22;11395;53.204;6.502;2022-11-15T18:51:27;24.30;63.10
22456;DHT22;11395;53.204;6.502;2022-11-15T18:53:59;24.30;63.10
22456;DHT22;11395;53.204;6.502;2022-11-15T18:56:28;24.30;63.20
22456;DHT22;11395;53.204;6.502;2022-11-15T18:58:56;24.20;63.30
22456;DHT22;11395;53.204;6.502;2022-11-15T19:01:29;24.30;63.40
22456;DHT22;11395;53.204;6.502;2022-11-15T19:03:57;24.20;63.20
22456;DHT22;11395;53.204;6.502;2022-11-15T19:06:25;24.20;63.40
22456;DHT22;11395;53.204;6.502;2022-11-15T19:08:53;24.20;63.30
22456;DHT22;11395;53.204;6.502;2022-11-15T19:11:25;24.20;63.30
22456;DHT22;11395;53.204;6.502;2022-11-15T19:13:54;24.10;63.50
22456;DHT22;11395;53.204;6.502;2022-11-15T19:16:25;24.10;63.50
22456;DHT22;11395;53.204;6.502;2022-11-15T19:18:54;24.10;63.70